首页
METAR-TAF:

METAR-TAF

机场 :

日内瓦, 瑞士

日内瓦国际机场

纬度: 46-15N, 经度: 006-08E, 海拔: 420米

当前天气观测

该预报发布于31分钟前的21:50 UTC
风速3节,风向多变
温度 16°C
湿度 55%
气压 1018 hPa
能见度10公里或以上
多云层高于5900英尺

METAR: LSGG 252150Z AUTO VRB03KT 9999 BKN059 16/07 Q1018 NOSIG

时间: 00:21 (22:21 UTC)

预报

该预报发布于1小时和56分钟前的20:25 UTC
预报有效从25日的 21点(UTC)到 27日的 03点(UTC)
风速3节,风向多变
能见度10公里或以上
少量云层高于4000英尺
散云层高于5000英尺
成为
从 26日的 09点(UTC)到 26日的 11点(UTC)
风速10节,风向东北
成为
从 26日的 19点(UTC)到 26日的 21点(UTC)
风速3节,风向多变

TAF: LSGG 252025Z 2521/2703 VRB03KT 9999 FEW040 SCT050 TX18/2615Z TN11/2606Z BECMG 2609/2611 05010KT BECMG 2619/2621 VRB03KT

超过4000个机场的气象观测和天气预报(METAR&TAF报告)。

可查询的气象台以黄色和红色小点在地图上表示。

将鼠标移到小点上方,可查看气象台名称。

然后点击查看天气观测和预报。

如需切换地图:点击带黑十字的绿色按钮放大地图;点击带横线的绿色按钮缩小地图;或者点击绿色箭头查看邻近地区的地图。


METAR-TAF: